createdAt,value
2019-01-23T00:01:09.037Z,3.90
2019-01-23T00:03:12.725Z,2.40
2019-01-23T00:05:16.495Z,2.50
2019-01-23T00:07:20.163Z,2.70
2019-01-23T00:09:23.870Z,2.80
2019-01-23T00:11:27.554Z,3.20
2019-01-23T00:13:31.350Z,3.00
2019-01-23T00:15:35.013Z,3.10
2019-01-23T00:17:38.727Z,3.50
2019-01-23T00:19:42.442Z,2.90
2019-01-23T00:21:46.108Z,2.20
2019-01-23T00:23:49.785Z,2.60
2019-01-23T00:25:53.461Z,3.00
2019-01-23T00:27:57.145Z,3.30
2019-01-23T00:30:00.813Z,3.70
2019-01-23T00:32:04.593Z,3.10
2019-01-23T00:34:08.277Z,2.80
2019-01-23T00:36:11.959Z,3.00
2019-01-23T00:38:15.669Z,3.50
2019-01-23T00:40:19.338Z,3.80
2019-01-23T00:42:23.005Z,3.90
2019-01-23T00:44:26.695Z,4.10
2019-01-23T00:46:30.354Z,4.10
2019-01-23T00:48:34.008Z,4.20
2019-01-23T00:50:37.718Z,3.90
2019-01-23T00:52:41.380Z,3.00
2019-01-23T00:54:45.063Z,3.10
2019-01-23T00:56:48.727Z,3.30
2019-01-23T00:58:52.612Z,3.40
2019-01-23T01:00:56.273Z,3.60
2019-01-23T01:02:59.949Z,3.80
2019-01-23T01:05:04.442Z,3.80
2019-01-23T01:07:08.117Z,3.70
2019-01-23T01:09:11.790Z,3.90
2019-01-23T01:11:15.555Z,3.90
2019-01-23T01:13:19.219Z,3.80
2019-01-23T01:15:22.918Z,3.60
2019-01-23T01:17:26.598Z,3.50
2019-01-23T01:19:30.255Z,3.20
2019-01-23T01:21:33.959Z,2.80
2019-01-23T01:23:37.627Z,2.80
2019-01-23T01:25:41.518Z,2.70
2019-01-23T01:27:45.514Z,3.00
2019-01-23T01:29:49.183Z,3.50
2019-01-23T01:31:52.887Z,3.30
2019-01-23T01:33:56.542Z,2.50
2019-01-23T01:36:00.249Z,2.70
2019-01-23T01:38:04.019Z,2.90
2019-01-23T01:40:12.446Z,2.90
2019-01-23T01:42:16.098Z,2.30
2019-01-23T01:44:19.753Z,1.70
2019-01-23T01:46:23.447Z,1.60
2019-01-23T01:48:27.116Z,1.80
2019-01-23T01:50:30.773Z,2.10
2019-01-23T01:52:34.484Z,2.30
2019-01-23T01:54:38.195Z,3.00
2019-01-23T01:56:41.956Z,2.80
2019-01-23T01:58:45.627Z,2.60
2019-01-23T02:00:49.314Z,2.90
2019-01-23T02:02:53.127Z,2.10
2019-01-23T02:04:56.800Z,1.90
2019-01-23T02:07:00.589Z,1.40
2019-01-23T02:09:07.027Z,1.50
2019-01-23T02:11:10.792Z,1.30
2019-01-23T02:13:14.533Z,1.40
2019-01-23T02:15:18.512Z,1.90
2019-01-23T02:17:22.191Z,2.00
2019-01-23T02:19:25.862Z,2.30
2019-01-23T02:21:29.528Z,2.30
2019-01-23T02:23:33.285Z,2.60
2019-01-23T02:25:36.932Z,2.70
2019-01-23T02:27:40.828Z,2.70
2019-01-23T02:29:44.563Z,2.70
2019-01-23T02:31:48.225Z,3.00
2019-01-23T02:33:51.921Z,3.00
2019-01-23T02:35:55.574Z,2.80
2019-01-23T02:37:59.295Z,2.60
2019-01-23T02:40:03.006Z,2.50
2019-01-23T02:42:06.710Z,2.40
2019-01-23T02:44:10.418Z,2.50
2019-01-23T02:46:14.182Z,2.50
2019-01-23T02:48:17.956Z,2.80
2019-01-23T02:50:21.620Z,2.20
2019-01-23T02:52:25.277Z,2.40
2019-01-23T02:54:28.989Z,2.50
2019-01-23T02:56:32.658Z,2.30
2019-01-23T02:58:36.341Z,1.80
2019-01-23T03:00:40.010Z,1.60
2019-01-23T03:02:43.759Z,1.40
2019-01-23T03:04:47.446Z,2.10
2019-01-23T03:06:51.099Z,2.30
2019-01-23T03:08:54.782Z,2.20
2019-01-23T03:10:58.442Z,2.80
2019-01-23T03:13:02.112Z,2.80
2019-01-23T03:15:08.913Z,2.70
2019-01-23T03:17:12.598Z,3.00
2019-01-23T03:19:16.395Z,3.40
2019-01-23T03:21:20.061Z,3.60
2019-01-23T03:23:23.734Z,3.60
2019-01-23T03:25:27.435Z,3.60
2019-01-23T03:27:31.098Z,3.50
2019-01-23T03:29:34.761Z,2.80
2019-01-23T03:31:38.546Z,2.20
2019-01-23T03:33:42.263Z,2.80
2019-01-23T03:35:46.025Z,3.00
2019-01-23T03:37:49.712Z,3.30
2019-01-23T03:39:53.396Z,2.60
2019-01-23T03:41:57.090Z,2.90
2019-01-23T03:44:00.863Z,3.30
2019-01-23T03:46:04.743Z,2.90
2019-01-23T03:48:08.404Z,2.80
2019-01-23T03:50:14.870Z,2.60
2019-01-23T03:52:18.532Z,2.90
2019-01-23T03:54:22.199Z,2.50
2019-01-23T03:56:25.892Z,3.00
2019-01-23T03:58:29.551Z,3.50
2019-01-23T04:00:33.221Z,3.70
2019-01-23T04:02:36.903Z,3.80
2019-01-23T04:04:40.555Z,3.40
2019-01-23T04:06:44.231Z,3.60
2019-01-23T04:08:47.904Z,3.00
2019-01-23T04:10:51.671Z,2.50
2019-01-23T04:12:55.384Z,2.30
2019-01-23T04:14:59.039Z,2.20
2019-01-23T04:17:02.730Z,2.50
2019-01-23T04:19:06.385Z,3.00
2019-01-23T04:21:10.078Z,3.40
2019-01-23T04:23:13.761Z,3.40
2019-01-23T04:25:17.514Z,2.90
2019-01-23T04:27:21.177Z,2.40
2019-01-23T04:29:24.855Z,2.50
2019-01-23T04:31:28.518Z,2.70
2019-01-23T04:33:32.227Z,3.20
2019-01-23T04:35:35.896Z,3.50
2019-01-23T04:37:39.568Z,3.80
2019-01-23T04:39:43.330Z,4.00
2019-01-23T04:41:47.000Z,4.00
2019-01-23T04:43:50.737Z,4.00
2019-01-23T04:45:54.396Z,4.00
2019-01-23T04:47:58.086Z,4.00
2019-01-23T04:50:01.759Z,4.00
2019-01-23T04:52:07.009Z,3.90
2019-01-23T04:54:11.286Z,3.80
2019-01-23T04:56:14.953Z,3.60
2019-01-23T04:58:18.611Z,3.60
2019-01-23T05:00:26.626Z,3.70
2019-01-23T05:02:30.358Z,3.80
2019-01-23T05:04:34.046Z,3.70
2019-01-23T05:06:37.711Z,3.70
2019-01-23T05:08:41.373Z,3.90
2019-01-23T05:10:45.051Z,3.90
2019-01-23T05:12:48.737Z,3.90
2019-01-23T05:14:52.443Z,4.00
2019-01-23T05:16:56.110Z,3.90
2019-01-23T05:18:59.758Z,3.80
2019-01-23T05:21:03.537Z,3.70
2019-01-23T05:23:07.234Z,3.80
2019-01-23T05:25:11.824Z,3.70
2019-01-23T05:27:15.482Z,3.30
2019-01-23T05:29:19.223Z,3.40
2019-01-23T05:31:22.934Z,3.70
2019-01-23T05:33:26.592Z,3.90
2019-01-23T05:35:30.274Z,3.90
2019-01-23T05:37:33.943Z,3.60
2019-01-23T05:39:37.617Z,3.20
2019-01-23T05:41:41.326Z,3.50
2019-01-23T05:43:44.991Z,3.70
2019-01-23T05:45:48.758Z,3.90
2019-01-23T05:47:52.434Z,4.10
2019-01-23T05:49:56.195Z,4.00
2019-01-23T05:51:59.860Z,4.00
2019-01-23T05:54:03.532Z,4.00
2019-01-23T05:56:07.237Z,3.80
2019-01-23T05:58:10.897Z,3.70
2019-01-23T06:00:19.806Z,3.60
2019-01-23T06:02:23.519Z,3.80
2019-01-23T06:04:27.182Z,3.80
2019-01-23T06:06:30.943Z,3.90
2019-01-23T06:08:34.622Z,3.90
2019-01-23T06:10:38.281Z,4.00
2019-01-23T06:12:41.996Z,4.00
2019-01-23T06:14:45.656Z,4.00
2019-01-23T06:16:49.378Z,4.10
2019-01-23T06:18:53.044Z,3.90
2019-01-23T06:20:56.754Z,3.60
2019-01-23T06:23:00.444Z,3.60
2019-01-23T06:25:04.921Z,3.80
2019-01-23T06:27:08.608Z,3.70
2019-01-23T06:29:12.275Z,3.80
2019-01-23T06:31:15.929Z,3.90
2019-01-23T06:33:19.674Z,3.70
2019-01-23T06:35:23.347Z,3.70
2019-01-23T06:37:27.048Z,3.90
2019-01-23T06:39:30.724Z,4.00
2019-01-23T06:41:34.426Z,4.00
2019-01-23T06:43:38.100Z,4.10
2019-01-23T06:45:41.759Z,4.10
2019-01-23T06:47:46.082Z,4.10
2019-01-23T06:49:49.795Z,4.10
2019-01-23T06:51:53.458Z,4.20
2019-01-23T06:53:57.255Z,4.20
2019-01-23T06:56:00.942Z,4.10
2019-01-23T06:58:04.790Z,4.10
2019-01-23T07:00:19.514Z,4.10
2019-01-23T07:02:23.190Z,4.10
2019-01-23T07:04:26.869Z,4.10
2019-01-23T07:06:30.539Z,4.00
2019-01-23T07:08:34.222Z,3.50
2019-01-23T07:10:37.886Z,3.50
2019-01-23T07:12:41.556Z,3.70
2019-01-23T07:14:45.343Z,3.20
2019-01-23T07:16:48.998Z,3.40
2019-01-23T07:18:52.815Z,3.60
2019-01-23T07:20:56.478Z,3.90
2019-01-23T07:23:00.143Z,3.60
2019-01-23T07:25:04.647Z,3.00
2019-01-23T07:27:08.297Z,3.40
2019-01-23T07:29:12.005Z,3.30
2019-01-23T07:31:15.758Z,3.30
2019-01-23T07:33:19.414Z,3.60
2019-01-23T07:35:23.102Z,3.20
2019-01-23T07:37:26.821Z,3.20
2019-01-23T07:39:30.511Z,3.50
2019-01-23T07:41:34.201Z,3.80
2019-01-23T07:43:37.854Z,3.80
2019-01-23T07:45:41.550Z,3.80
2019-01-23T07:47:45.212Z,3.90
2019-01-23T07:49:49.059Z,4.00
2019-01-23T07:51:52.729Z,4.00
2019-01-23T07:53:56.394Z,4.10
2019-01-23T07:56:00.145Z,4.10
2019-01-23T07:58:04.123Z,3.90
2019-01-23T08:00:13.454Z,3.60
2019-01-23T08:02:17.151Z,3.70
2019-01-23T08:04:20.806Z,3.70
2019-01-23T08:06:24.504Z,3.80
2019-01-23T08:08:28.203Z,3.80
2019-01-23T08:10:31.891Z,3.80
2019-01-23T08:12:35.547Z,3.80
2019-01-23T08:14:39.360Z,3.90
2019-01-23T08:16:43.173Z,4.00
2019-01-23T08:18:46.806Z,4.10
2019-01-23T08:20:50.530Z,3.90
2019-01-23T08:22:54.220Z,3.90
2019-01-23T08:24:57.901Z,4.00
2019-01-23T08:27:07.017Z,4.10
2019-01-23T08:29:06.981Z,4.10
2019-01-23T08:31:10.651Z,4.10
2019-01-23T08:33:14.370Z,4.10
2019-01-23T08:35:18.828Z,4.00
2019-01-23T08:37:22.507Z,4.10
2019-01-23T08:39:26.181Z,4.10
2019-01-23T08:41:29.866Z,4.00
2019-01-23T08:43:33.587Z,4.00
2019-01-23T08:45:37.462Z,3.90
2019-01-23T08:47:41.284Z,3.90
2019-01-23T08:49:45.634Z,4.00
2019-01-23T08:51:49.385Z,4.10
2019-01-23T08:53:53.170Z,3.00
2019-01-23T08:55:56.835Z,2.20
2019-01-23T08:58:00.538Z,1.70
2019-01-23T09:00:07.171Z,1.90
2019-01-23T09:02:10.858Z,2.30
2019-01-23T09:04:14.704Z,2.40
2019-01-23T09:06:18.358Z,1.80
2019-01-23T09:08:22.050Z,1.80
2019-01-23T09:10:27.428Z,2.30
2019-01-23T09:12:31.101Z,2.10
2019-01-23T09:14:34.794Z,2.40
2019-01-23T09:16:38.521Z,2.40
2019-01-23T09:18:42.214Z,2.50
2019-01-23T09:20:45.870Z,2.70
2019-01-23T09:22:49.538Z,3.00
2019-01-23T09:24:53.334Z,3.40
2019-01-23T09:26:57.019Z,2.70
2019-01-23T09:29:00.741Z,3.10
2019-01-23T09:31:07.336Z,2.80
2019-01-23T09:33:34.835Z,2.90
2019-01-23T09:35:49.926Z,3.20
2019-01-23T09:37:59.467Z,3.40
2019-01-23T09:40:14.577Z,2.90
2019-01-23T09:42:23.823Z,2.40
2019-01-23T09:44:42.117Z,1.90
2019-01-23T09:47:10.081Z,1.90
2019-01-23T09:49:16.733Z,2.40
2019-01-23T09:51:41.534Z,2.40
2019-01-23T09:53:48.154Z,2.70
2019-01-23T09:55:51.838Z,2.30
2019-01-23T09:57:55.516Z,2.30
2019-01-23T09:59:59.210Z,1.70
2019-01-23T10:02:02.906Z,1.90
2019-01-23T10:04:06.633Z,2.50
2019-01-23T10:06:10.327Z,2.80
2019-01-23T10:08:13.993Z,2.80
2019-01-23T10:10:19.574Z,3.00
2019-01-23T10:12:23.356Z,2.90
2019-01-23T10:14:27.010Z,3.10
2019-01-23T10:16:30.700Z,2.90
2019-01-23T10:18:34.450Z,3.10
2019-01-23T10:20:38.137Z,3.00
2019-01-23T10:22:41.907Z,3.00
2019-01-23T10:24:45.576Z,3.20
2019-01-23T10:26:49.267Z,3.60
2019-01-23T10:28:52.938Z,4.00
2019-01-23T10:30:56.713Z,4.20
2019-01-23T10:33:00.447Z,4.20
2019-01-23T10:35:05.903Z,4.30
2019-01-23T10:37:09.598Z,4.30
2019-01-23T10:39:13.368Z,4.00
2019-01-23T10:41:17.051Z,4.00
2019-01-23T10:43:20.719Z,4.00
2019-01-23T10:45:24.386Z,3.80
2019-01-23T10:47:28.067Z,4.10
2019-01-23T10:49:31.734Z,4.30
2019-01-23T10:51:35.423Z,3.70
2019-01-23T10:53:39.075Z,4.10
2019-01-23T10:55:42.767Z,3.90
2019-01-23T10:57:53.365Z,4.20
2019-01-23T10:59:57.047Z,4.30
2019-01-23T11:02:00.734Z,3.90
2019-01-23T11:04:04.698Z,4.10
2019-01-23T11:06:08.558Z,4.50
2019-01-23T11:08:12.242Z,4.70
2019-01-23T11:10:24.058Z,4.60
2019-01-23T11:12:27.769Z,4.60
2019-01-23T11:14:31.506Z,4.60
2019-01-23T11:16:35.202Z,4.70
2019-01-23T11:18:38.890Z,4.60
2019-01-23T11:20:42.553Z,4.50
2019-01-23T11:22:46.256Z,4.70
2019-01-23T11:24:49.915Z,4.60
2019-01-23T11:26:53.574Z,4.10
2019-01-23T11:28:57.260Z,4.10
2019-01-23T11:31:00.917Z,4.20
2019-01-23T11:33:04.628Z,4.20
2019-01-23T11:35:09.983Z,4.40
2019-01-23T11:37:13.640Z,4.60
2019-01-23T11:39:17.338Z,4.80
2019-01-23T11:41:21.012Z,4.90
2019-01-23T11:43:24.698Z,4.70
2019-01-23T11:45:28.463Z,4.70
2019-01-23T11:47:32.237Z,4.50
2019-01-23T11:49:35.893Z,3.90
2019-01-23T11:51:39.596Z,4.20
2019-01-23T11:53:43.260Z,4.50
2019-01-23T11:55:46.950Z,4.80
2019-01-23T11:57:50.609Z,4.90
2019-01-23T11:59:54.296Z,5.00
2019-01-23T12:01:57.970Z,5.00
2019-01-23T12:04:01.648Z,5.00
2019-01-23T12:06:05.573Z,4.90
2019-01-23T12:08:09.241Z,4.80
2019-01-23T12:10:16.041Z,4.90
2019-01-23T12:12:19.784Z,4.90
2019-01-23T12:14:23.478Z,5.10
2019-01-23T12:16:27.233Z,4.90
2019-01-23T12:18:30.887Z,4.90
2019-01-23T12:20:34.564Z,4.10
2019-01-23T12:22:38.319Z,3.90
2019-01-23T12:24:42.011Z,4.30
2019-01-23T12:26:45.671Z,4.50
2019-01-23T12:28:49.342Z,4.60
2019-01-23T12:30:53.172Z,4.50
2019-01-23T12:32:56.824Z,4.60
2019-01-23T12:35:00.670Z,4.80
2019-01-23T12:37:04.386Z,4.90
2019-01-23T12:39:08.542Z,4.70
2019-01-23T12:41:12.271Z,4.30
2019-01-23T12:43:16.058Z,4.50
2019-01-23T12:45:22.642Z,4.10
2019-01-23T12:47:26.355Z,3.80
2019-01-23T12:49:30.028Z,2.50
2019-01-23T12:51:33.690Z,3.20
2019-01-23T12:53:37.388Z,3.60
2019-01-23T12:55:41.077Z,2.80
2019-01-23T12:57:44.790Z,1.80
2019-01-23T12:59:48.466Z,1.70
2019-01-23T13:01:52.418Z,1.10
2019-01-23T13:03:56.086Z,2.00
2019-01-23T13:05:59.743Z,2.90
2019-01-23T13:08:03.456Z,3.30
2019-01-23T13:10:10.050Z,3.50
2019-01-23T13:12:13.922Z,3.60
2019-01-23T13:14:17.582Z,4.00
2019-01-23T13:16:21.248Z,3.80
2019-01-23T13:18:24.997Z,3.70
2019-01-23T13:20:28.668Z,3.90
2019-01-23T13:22:33.644Z,4.30
2019-01-23T13:24:37.441Z,4.40
2019-01-23T13:26:41.111Z,4.30
2019-01-23T13:28:44.798Z,3.80
2019-01-23T13:30:48.483Z,3.20
2019-01-23T13:32:52.183Z,3.10
2019-01-23T13:34:55.865Z,3.50
2019-01-23T13:36:59.522Z,3.90
2019-01-23T13:39:04.355Z,4.20
2019-01-23T13:41:08.096Z,4.40
2019-01-23T13:43:11.770Z,4.30
2019-01-23T13:45:15.457Z,4.50
2019-01-23T13:47:19.235Z,4.20
2019-01-23T13:49:22.947Z,4.30
2019-01-23T13:51:26.625Z,4.40
2019-01-23T13:53:30.296Z,4.10
2019-01-23T13:55:33.994Z,4.00
2019-01-23T13:57:37.679Z,3.90
2019-01-23T13:59:41.362Z,4.00
2019-01-23T14:01:45.144Z,4.00
2019-01-23T14:03:50.787Z,4.00
2019-01-23T14:05:55.079Z,3.60
2019-01-23T14:07:58.741Z,2.50
2019-01-23T14:10:02.469Z,2.40
2019-01-23T14:12:06.159Z,3.00
2019-01-23T14:14:09.826Z,3.40
2019-01-23T14:16:13.625Z,3.80
2019-01-23T14:18:17.328Z,3.50
2019-01-23T14:20:21.025Z,3.60
2019-01-23T14:22:24.704Z,3.80
2019-01-23T14:24:28.379Z,3.80
2019-01-23T14:26:32.087Z,4.00
2019-01-23T14:28:36.837Z,4.30
2019-01-23T14:30:42.763Z,4.20
2019-01-23T14:32:46.440Z,4.30
2019-01-23T14:34:50.115Z,4.50
2019-01-23T14:36:54.095Z,4.60
2019-01-23T14:38:57.875Z,4.40
2019-01-23T14:41:01.567Z,4.30
2019-01-23T14:43:05.887Z,4.30
2019-01-23T14:45:17.007Z,4.10
2019-01-23T14:47:20.691Z,3.30
2019-01-23T14:49:24.364Z,2.80
2019-01-23T14:51:28.071Z,3.30
2019-01-23T14:53:31.759Z,3.50
2019-01-23T14:55:35.429Z,3.30
2019-01-23T14:57:39.317Z,3.10
2019-01-23T14:59:42.987Z,3.40
2019-01-23T15:01:46.679Z,3.70
2019-01-23T15:03:50.346Z,3.80
2019-01-23T15:05:54.035Z,3.90
2019-01-23T15:07:57.709Z,3.70
2019-01-23T15:10:01.367Z,3.80
2019-01-23T15:12:05.064Z,4.00
2019-01-23T15:14:08.805Z,4.20
2019-01-23T15:16:12.470Z,4.00
2019-01-23T15:18:16.154Z,3.40
2019-01-23T15:20:22.717Z,3.70
2019-01-23T15:22:26.407Z,3.40
2019-01-23T15:24:30.106Z,3.50
2019-01-23T15:26:33.875Z,3.50
2019-01-23T15:28:37.557Z,3.70
2019-01-23T15:30:41.219Z,3.90
2019-01-23T15:32:44.937Z,4.00
2019-01-23T15:34:48.643Z,4.10
2019-01-23T15:36:52.368Z,4.30
2019-01-23T15:38:56.074Z,4.30
2019-01-23T15:40:59.831Z,4.20
2019-01-23T15:43:03.539Z,4.30
2019-01-23T15:45:09.856Z,4.40
2019-01-23T15:47:13.516Z,4.50
2019-01-23T15:49:17.253Z,4.50
2019-01-23T15:51:21.111Z,4.60
2019-01-23T15:53:24.782Z,4.50
2019-01-23T15:55:28.461Z,4.50
2019-01-23T15:57:32.137Z,4.20
2019-01-23T15:59:35.967Z,4.20
2019-01-23T16:01:39.624Z,4.00
2019-01-23T16:03:43.316Z,3.40
2019-01-23T16:05:47.018Z,3.40
2019-01-23T16:07:50.675Z,3.50
2019-01-23T16:09:54.389Z,3.20
2019-01-23T16:11:58.034Z,3.10
2019-01-23T16:14:01.791Z,2.70
2019-01-23T16:16:05.483Z,2.90
2019-01-23T16:18:09.252Z,3.30
2019-01-23T16:20:13.931Z,2.60
2019-01-23T16:22:17.695Z,2.60
2019-01-23T16:24:21.367Z,2.60
2019-01-23T16:26:25.043Z,2.70
2019-01-23T16:28:28.835Z,3.10
2019-01-23T16:30:36.776Z,3.20
2019-01-23T16:32:40.453Z,3.00
2019-01-23T16:34:44.327Z,3.20
2019-01-23T16:36:48.099Z,3.50
2019-01-23T16:38:52.200Z,3.10
2019-01-23T16:40:55.976Z,2.30
2019-01-23T16:42:59.758Z,2.30
2019-01-23T16:45:05.134Z,2.80
2019-01-23T16:47:08.820Z,3.20
2019-01-23T16:49:12.499Z,2.80
2019-01-23T16:51:16.415Z,2.80
2019-01-23T16:53:20.083Z,2.40
2019-01-23T16:55:23.950Z,3.10
2019-01-23T16:57:27.722Z,3.60
2019-01-23T16:59:31.398Z,3.60
2019-01-23T17:01:35.104Z,3.80
2019-01-23T17:03:38.760Z,4.10
2019-01-23T17:05:42.419Z,4.30
2019-01-23T17:07:46.210Z,4.40
2019-01-23T17:09:49.871Z,4.50
2019-01-23T17:11:53.590Z,3.40
2019-01-23T17:13:57.252Z,3.50
2019-01-23T17:16:00.955Z,2.80
2019-01-23T17:18:04.828Z,2.50
2019-01-23T17:20:12.752Z,3.10
2019-01-23T17:22:16.486Z,2.50
2019-01-23T17:24:20.140Z,2.70
2019-01-23T17:26:23.789Z,2.80
2019-01-23T17:28:27.477Z,2.30
2019-01-23T17:30:31.144Z,2.40
2019-01-23T17:32:34.927Z,2.30
2019-01-23T17:34:38.584Z,2.70
2019-01-23T17:36:42.241Z,2.50
2019-01-23T17:38:45.909Z,2.90
2019-01-23T17:40:49.568Z,3.30
2019-01-23T17:42:53.255Z,2.50
2019-01-23T17:44:56.926Z,2.20
2019-01-23T17:47:00.870Z,2.70
2019-01-23T17:49:04.859Z,2.70
2019-01-23T17:51:08.537Z,2.50
2019-01-23T17:53:12.291Z,3.00
2019-01-23T17:55:18.877Z,3.40
2019-01-23T17:57:22.525Z,3.60
2019-01-23T17:59:26.204Z,3.60
2019-01-23T18:01:29.862Z,3.80
2019-01-23T18:03:33.536Z,3.60
2019-01-23T18:05:37.261Z,3.80
2019-01-23T18:07:40.915Z,3.50
2019-01-23T18:09:44.621Z,3.80
2019-01-23T18:11:48.282Z,3.90
2019-01-23T18:13:52.044Z,3.70
2019-01-23T18:15:56.474Z,3.90
2019-01-23T18:18:00.163Z,3.70
2019-01-23T18:20:05.744Z,2.50
2019-01-23T18:22:09.493Z,2.80
2019-01-23T18:24:13.289Z,2.80
2019-01-23T18:26:20.008Z,2.80
2019-01-23T18:28:23.775Z,3.10
2019-01-23T18:30:42.189Z,2.40
2019-01-23T18:32:45.932Z,1.50
2019-01-23T18:35:04.598Z,2.00
2019-01-23T18:37:13.886Z,2.70
2019-01-23T18:39:26.830Z,3.10
2019-01-23T18:41:39.526Z,3.40
2019-01-23T18:44:10.406Z,3.70
2019-01-23T18:46:26.151Z,3.60
2019-01-23T18:48:35.624Z,3.60
2019-01-23T18:50:57.349Z,3.50
2019-01-23T18:53:01.044Z,3.50
2019-01-23T18:55:07.521Z,3.60
2019-01-23T18:57:14.472Z,3.60
2019-01-23T18:59:18.154Z,3.30
2019-01-23T19:01:21.890Z,3.30
2019-01-23T19:03:25.572Z,3.00
2019-01-23T19:05:29.240Z,3.20
2019-01-23T19:07:33.635Z,3.60
2019-01-23T19:09:37.383Z,3.90
2019-01-23T19:11:41.054Z,4.00
2019-01-23T19:13:44.747Z,4.20
2019-01-23T19:15:48.413Z,3.60
2019-01-23T19:17:52.124Z,2.50
2019-01-23T19:19:55.806Z,1.10
2019-01-23T19:21:59.477Z,1.10
2019-01-23T19:24:03.355Z,2.10
2019-01-23T19:26:07.018Z,2.60
2019-01-23T19:28:10.752Z,3.00
2019-01-23T19:30:17.415Z,3.20
2019-01-23T19:32:21.216Z,3.40
2019-01-23T19:34:24.988Z,3.70
2019-01-23T19:36:28.680Z,4.00
2019-01-23T19:38:32.335Z,4.20
2019-01-23T19:40:36.003Z,3.90
2019-01-23T19:42:39.693Z,4.00
2019-01-23T19:44:44.649Z,3.80
2019-01-23T19:46:48.463Z,4.00
2019-01-23T19:48:52.271Z,4.10
2019-01-23T19:50:55.926Z,4.20
2019-01-23T19:52:59.703Z,4.40
2019-01-23T19:55:03.509Z,4.50
2019-01-23T19:57:08.635Z,4.20
2019-01-23T19:59:12.351Z,4.40
2019-01-23T20:01:16.025Z,4.30
2019-01-23T20:03:20.631Z,4.40
2019-01-23T20:05:25.724Z,4.30
2019-01-23T20:07:29.428Z,4.30
2019-01-23T20:09:33.176Z,4.10
2019-01-23T20:11:36.841Z,4.10
2019-01-23T20:13:40.658Z,4.10
2019-01-23T20:15:44.359Z,4.20
2019-01-23T20:17:48.112Z,4.30
2019-01-23T20:19:51.832Z,4.30
2019-01-23T20:21:55.498Z,4.10
2019-01-23T20:23:59.215Z,4.20
2019-01-23T20:26:02.947Z,4.40
2019-01-23T20:28:06.601Z,4.60
2019-01-23T20:30:19.250Z,4.70
2019-01-23T20:32:22.928Z,4.70
2019-01-23T20:34:26.627Z,4.50
2019-01-23T20:36:30.439Z,4.00
2019-01-23T20:38:34.110Z,3.60
2019-01-23T20:40:37.815Z,3.60
2019-01-23T20:42:41.871Z,3.90
2019-01-23T20:44:45.566Z,4.10
2019-01-23T20:46:49.373Z,4.20
2019-01-23T20:48:53.050Z,3.90
2019-01-23T20:50:56.758Z,3.90
2019-01-23T20:53:00.566Z,3.60
2019-01-23T20:55:05.069Z,3.50
2019-01-23T20:57:08.740Z,3.50
2019-01-23T20:59:12.423Z,3.60
2019-01-23T21:01:16.174Z,3.60
2019-01-23T21:03:19.933Z,3.30
2019-01-23T21:05:23.594Z,3.20
2019-01-23T21:07:27.285Z,3.20
2019-01-23T21:09:30.955Z,3.40
2019-01-23T21:11:34.655Z,3.60
2019-01-23T21:13:38.328Z,3.70
2019-01-23T21:15:42.018Z,3.80
2019-01-23T21:17:45.702Z,3.90
2019-01-23T21:19:49.390Z,4.00
2019-01-23T21:21:53.133Z,4.00
2019-01-23T21:23:56.837Z,4.00
2019-01-23T21:26:00.525Z,3.70
2019-01-23T21:28:04.566Z,3.50
2019-01-23T21:30:25.682Z,3.00
2019-01-23T21:32:29.411Z,3.00
2019-01-23T21:34:33.070Z,2.90
2019-01-23T21:36:36.763Z,3.00
2019-01-23T21:38:40.430Z,3.20
2019-01-23T21:40:44.119Z,3.20
2019-01-23T21:42:47.794Z,3.40
2019-01-23T21:44:51.461Z,3.40
2019-01-23T21:46:55.187Z,3.40
2019-01-23T21:48:58.954Z,3.30
2019-01-23T21:51:02.635Z,3.40
2019-01-23T21:53:06.333Z,3.40
2019-01-23T21:55:12.099Z,2.80
2019-01-23T21:57:15.769Z,3.20
2019-01-23T21:59:19.582Z,3.50
2019-01-23T22:01:23.264Z,3.70
2019-01-23T22:03:26.960Z,3.60
2019-01-23T22:05:30.723Z,3.80
2019-01-23T22:07:34.394Z,4.10
2019-01-23T22:09:38.081Z,4.00
2019-01-23T22:11:43.640Z,4.10
2019-01-23T22:13:47.123Z,3.70
2019-01-23T22:15:50.810Z,3.50
2019-01-23T22:17:54.503Z,3.50
2019-01-23T22:19:58.182Z,3.30
2019-01-23T22:22:01.846Z,3.30
2019-01-23T22:24:05.548Z,3.50
2019-01-23T22:26:09.210Z,3.80
2019-01-23T22:28:12.986Z,4.10
2019-01-23T22:30:19.406Z,4.20
2019-01-23T22:32:23.079Z,4.40
2019-01-23T22:34:26.779Z,4.50
2019-01-23T22:36:30.451Z,4.50
2019-01-23T22:38:34.140Z,4.60
2019-01-23T22:40:37.919Z,4.50
2019-01-23T22:42:41.584Z,4.30
2019-01-23T22:44:45.272Z,4.00
2019-01-23T22:46:48.978Z,3.70
2019-01-23T22:48:52.691Z,3.60
2019-01-23T22:50:56.398Z,3.60
2019-01-23T22:53:00.956Z,3.70
2019-01-23T22:55:07.016Z,3.40
2019-01-23T22:57:10.686Z,3.30
2019-01-23T22:59:14.382Z,3.20
2019-01-23T23:01:20.446Z,3.10
2019-01-23T23:03:24.117Z,3.50
2019-01-23T23:05:27.903Z,3.60
2019-01-23T23:07:31.613Z,3.70
2019-01-23T23:09:35.272Z,3.80
2019-01-23T23:11:38.974Z,3.70
2019-01-23T23:13:42.640Z,3.80
2019-01-23T23:15:46.744Z,3.50
2019-01-23T23:17:50.394Z,3.50
2019-01-23T23:19:54.064Z,3.50
2019-01-23T23:21:57.764Z,3.40
2019-01-23T23:24:01.433Z,3.50
2019-01-23T23:26:05.320Z,2.60
2019-01-23T23:28:08.999Z,2.90
2019-01-23T23:30:17.914Z,4.50
2019-01-23T23:32:21.615Z,3.50
2019-01-23T23:34:25.298Z,3.60
2019-01-23T23:36:28.962Z,3.80
2019-01-23T23:38:32.690Z,3.70
2019-01-23T23:40:36.366Z,3.50
2019-01-23T23:42:40.096Z,3.50
2019-01-23T23:44:43.742Z,3.60
2019-01-23T23:46:47.398Z,3.80
2019-01-23T23:48:51.112Z,3.80
2019-01-23T23:50:54.775Z,3.70
2019-01-23T23:52:58.621Z,3.50
2019-01-23T23:55:02.288Z,3.40
2019-01-23T23:57:06.014Z,3.20
2019-01-23T23:59:09.725Z,3.10
